Time;durP1;ratioP1;P1;durP2;ratioP2;P2;SDS_P1;SDS_P2;PMS_P1;PMS_P2;Temp;Humidity;BMP_temperature;BMP_pressure;BME280_temperature;BME280_humidity;BME280_pressure;Samples;Min_cycle;Max_cycle;Signal;HPM_P1;HPM_P2
2021/12/25 00:00:45;;;;;;;;;;;;;;;-10.97;79.90;97089.91;5011544;28;19917;-77
2021/12/25 00:03:11;;;;;;;;;;;;;;;-10.91;78.73;97076.75;5011439;28;19918;-78
2021/12/25 00:05:36;;;;;;;;;;;;;;;-10.91;79.45;97066.75;4995345;28;19943;-77
2021/12/25 00:08:02;;;;;;;;;;;;;;;-10.90;79.45;97069.34;5011507;28;19928;-77
2021/12/25 00:10:30;;;;;;;;;;;;;;;-10.88;78.27;97061.88;5012596;28;20004;-77
2021/12/25 00:12:56;;;;;;;;;;;;;;;-10.83;79.63;97067.91;5011281;28;19924;-77
2021/12/25 00:15:21;;;;;;;;;;;;;;;-10.83;78.00;97050.38;5011374;28;19985;-76
2021/12/25 00:17:47;;;;;;;;;;;;;;;-10.78;78.70;97058.91;5015928;28;20454;-77
2021/12/25 00:20:13;;;;;;;;;;;;;;;-10.71;79.41;97048.31;5030985;28;20376;-77
2021/12/25 00:22:38;;;;;;;;;;;;;;;-10.60;79.12;97048.69;4998548;28;20012;-77
2021/12/25 00:25:04;;;;;;;;;;;;;;;-10.65;79.11;97042.66;5014831;28;19921;-78
2021/12/25 00:28:16;;;;;;;;;;;;;;;-10.63;77.96;97041.91;5015881;28;19921;-78
2021/12/25 00:30:31;;;;;;;;;;;;;;;-10.63;78.36;97039.41;5014507;28;19924;-77
2021/12/25 00:33:05;;;;;;;;;;;;;;;-10.57;78.41;97023.75;5013110;28;20399;-78
2021/12/25 00:35:32;;;;;;;;;;;;;;;-10.58;78.92;97042.06;5014571;28;20387;-78
2021/12/25 00:37:57;;;;;;;;;;;;;;;-10.59;78.90;97025.34;4998241;28;19913;-78
2021/12/25 00:40:23;;;;;;;;;;;;;;;-10.55;78.27;97004.63;5014586;28;20008;-78
2021/12/25 00:42:50;;;;;;;;;;;;;;;-10.57;79.21;97001.22;5016004;28;19925;-77
2021/12/25 00:45:15;;;;;;;;;;;;;;;-10.53;79.48;96995.53;5014396;28;19917;-79
2021/12/25 00:47:41;;;;;;;;;;;;;;;-10.53;78.71;96991.34;5014475;28;19928;-77
2021/12/25 00:50:07;;;;;;;;;;;;;;;-10.57;78.20;96978.66;5014180;28;19924;-77
2021/12/25 00:52:34;;;;;;;;;;;;;;;-10.54;79.30;96971.25;4997872;28;19979;-78
2021/12/25 00:55:01;;;;;;;;;;;;;;;-10.54;78.52;96966.22;4997952;28;19913;-78
2021/12/25 00:57:26;;;;;;;;;;;;;;;-10.57;78.76;96961.13;5013984;28;19917;-78
2021/12/25 00:59:52;;;;;;;;;;;;;;;-10.51;78.83;96957.19;4997827;28;19968;-78
2021/12/25 01:02:17;;;;;;;;;;;;;;;-10.53;79.76;96953.78;5013897;28;20004;-78
2021/12/25 01:04:43;;;;;;;;;;;;;;;-10.52;79.68;96957.97;5013953;28;20008;-77
2021/12/25 01:07:09;;;;;;;;;;;;;;;-10.53;79.60;96943.75;5015107;28;19921;-75
2021/12/25 01:09:34;;;;;;;;;;;;;;;-10.49;79.68;96934.66;5013908;28;20280;-76
2021/12/25 01:12:03;;;;;;;;;;;;;;;-10.48;80.23;96933.88;4981636;28;19913;-76
2021/12/25 01:30:23;;;;;;;;;;;;;;;-10.40;79.76;96902.44;5013262;28;19924;-77
2021/12/25 01:39:16;;;;;;;;;;;;;;;-10.31;79.92;96876.78;5013682;28;20015;-77
2021/12/25 01:42:00;;;;;;;;;;;;;;;-10.27;80.37;96869.41;5013408;28;19924;-77
2021/12/25 01:47:53;;;;;;;;;;;;;;;-10.21;79.77;96857.88;5005968;28;19921;-76
2021/12/25 01:50:23;;;;;;;;;;;;;;;-10.19;80.28;96852.09;5012616;28;19917;-76
2021/12/25 01:52:49;;;;;;;;;;;;;;;-10.13;79.72;96838.88;5014335;28;20341;-77
2021/12/25 01:55:19;;;;;;;;;;;;;;;-10.17;80.45;96844.59;4996638;28;19919;-77
2021/12/25 01:57:45;;;;;;;;;;;;;;;-10.16;79.58;96824.63;5012937;28;19952;-77
2021/12/25 02:00:14;;;;;;;;;;;;;;;-10.09;79.70;96835.69;5012804;28;19948;-77
2021/12/25 02:02:42;;;;;;;;;;;;;;;-10.12;80.27;96830.59;5012856;28;19917;-77
2021/12/25 02:05:08;;;;;;;;;;;;;;;-10.13;80.36;96822.19;5012745;28;19920;-77
2021/12/25 02:07:33;;;;;;;;;;;;;;;-10.15;80.35;96825.47;5012544;28;20313;-77
2021/12/25 02:09:59;;;;;;;;;;;;;;;-10.14;79.73;96814.63;4996371;28;20384;-78
2021/12/25 02:12:25;;;;;;;;;;;;;;;-10.11;80.60;96810.56;5012735;28;19917;-77
2021/12/25 02:14:51;;;;;;;;;;;;;;;-10.16;80.68;96818.75;5012682;28;19917;-77
2021/12/25 02:17:24;;;;;;;;;;;;;;;-10.17;79.93;96814.53;5012612;28;19975;-77
2021/12/25 02:20:06;;;;;;;;;;;;;;;-10.13;80.23;96813.81;4996442;28;20388;-77
2021/12/25 02:22:33;;;;;;;;;;;;;;;-10.12;80.91;96810.53;5012445;28;19921;-77
2021/12/25 02:24:59;;;;;;;;;;;;;;;-10.11;81.16;96813.06;4996396;28;19913;-78
2021/12/25 02:27:25;;;;;;;;;;;;;;;-10.10;81.22;96798.88;5012352;28;19922;-76
2021/12/25 02:29:51;;;;;;;;;;;;;;;-10.04;81.21;96796.53;4996161;28;20384;-76
2021/12/25 02:32:16;;;;;;;;;;;;;;;-10.05;81.13;96790.69;5012323;28;19928;-77
2021/12/25 02:34:44;;;;;;;;;;;;;;;-10.03;81.11;96788.25;4995810;28;19921;-76
2021/12/25 02:37:10;;;;;;;;;;;;;;;-10.01;81.44;96786.63;5013195;28;20350;-77
2021/12/25 02:39:38;;;;;;;;;;;;;;;-9.96;81.77;96785.09;4995097;28;19956;-76
2021/12/25 02:42:03;;;;;;;;;;;;;;;-9.94;81.68;96773.47;5012423;28;20499;-76
2021/12/25 02:44:29;;;;;;;;;;;;;;;-9.93;81.92;96775.16;5013337;28;19913;-77
2021/12/25 02:46:55;;;;;;;;;;;;;;;-9.90;82.49;96761.84;5011697;28;19917;-76
2021/12/25 02:49:21;;;;;;;;;;;;;;;-9.87;81.80;96765.28;5012014;28;19914;-77
2021/12/25 02:51:47;;;;;;;;;;;;;;;-9.84;82.93;96762.88;5012999;28;19925;-77
2021/12/25 02:54:13;;;;;;;;;;;;;;;-9.83;82.72;96752.03;5011914;28;20357;-77
2021/12/25 02:56:39;;;;;;;;;;;;;;;-9.80;83.20;96747.13;5011799;28;20016;-77
2021/12/25 02:59:05;;;;;;;;;;;;;;;-9.78;82.52;96740.47;5011944;28;19952;-76
2021/12/25 03:01:31;;;;;;;;;;;;;;;-9.72;83.31;96743.13;5011701;28;19975;-76
2021/12/25 03:03:56;;;;;;;;;;;;;;;-9.65;83.06;96736.66;4995603;28;20005;-77
2021/12/25 03:06:25;;;;;;;;;;;;;;;-9.62;82.50;96738.38;5011619;28;19948;-77
2021/12/25 03:08:51;;;;;;;;;;;;;;;-9.60;82.87;96739.28;4995364;28;19929;-77
2021/12/25 03:11:17;;;;;;;;;;;;;;;-9.60;83.29;96732.59;5011636;28;19917;-76
2021/12/25 03:16:08;;;;;;;;;;;;;;;-9.56;83.35;96721.00;5011664;28;20380;-76
2021/12/25 03:18:40;;;;;;;;;;;;;;;-9.52;83.21;96712.75;4979366;28;19918;-77
2021/12/25 03:21:05;;;;;;;;;;;;;;;-9.51;83.58;96709.41;5011297;28;19924;-77
2021/12/25 03:23:31;;;;;;;;;;;;;;;-9.48;83.56;96705.34;5011797;28;20380;-77
2021/12/25 03:25:57;;;;;;;;;;;;;;;-9.42;83.58;96697.09;5011420;28;19921;-77
2021/12/25 03:28:23;;;;;;;;;;;;;;;-9.40;83.74;96692.97;4995311;28;19917;-77
2021/12/25 03:30:49;;;;;;;;;;;;;;;-9.37;83.65;96688.03;4995126;28;20007;-77
2021/12/25 03:33:16;;;;;;;;;;;;;;;-9.35;83.75;96688.06;5011571;28;19956;-76
2021/12/25 03:35:41;;;;;;;;;;;;;;;-9.33;83.60;96684.78;4995271;28;20019;-77
2021/12/25 03:38:08;;;;;;;;;;;;;;;-9.28;83.70;96677.38;5013125;28;20014;-77
2021/12/25 03:40:33;;;;;;;;;;;;;;;-9.24;83.84;96690.03;5011562;28;19921;-77
2021/12/25 03:42:59;;;;;;;;;;;;;;;-9.22;83.97;96688.41;4994996;28;19917;-77
2021/12/25 03:45:27;;;;;;;;;;;;;;;-9.19;83.88;96686.81;5011422;28;19921;-77
2021/12/25 03:48:03;;;;;;;;;;;;;;;-9.17;83.98;96677.63;4994926;28;19917;-77
2021/12/25 03:57:38;;;;;;;;;;;;;;;-9.14;84.06;96686.09;5015580;28;19918;-77
2021/12/25 03:58:50;;;;;;;;;;;;;;;-9.13;84.00;96671.88;5012384;28;19917;-78
2021/12/25 04:01:44;;;;;;;;;;;;;;;-9.11;83.66;96670.28;5016416;28;20296;-77
2021/12/25 04:06:50;;;;;;;;;;;;;;;-9.08;83.72;96658.63;5013911;28;19917;-78
2021/12/25 04:09:38;;;;;;;;;;;;;;;-9.08;83.73;96646.06;4997868;28;19925;-77
2021/12/25 04:12:03;;;;;;;;;;;;;;;-9.06;83.89;96654.50;4998181;28;19917;-77
2021/12/25 04:14:31;;;;;;;;;;;;;;;-9.03;84.16;96651.19;4998461;28;19913;-77
2021/12/25 04:16:57;;;;;;;;;;;;;;;-9.03;84.32;96638.63;4998264;28;20294;-78
2021/12/25 04:19:22;;;;;;;;;;;;;;;-9.01;84.23;96647.06;5014864;28;19913;-77
2021/12/25 04:22:00;;;;;;;;;;;;;;;-8.99;84.67;96651.28;5014226;28;19917;-77
2021/12/25 04:24:28;;;;;;;;;;;;;;;-8.97;84.82;96649.69;5014528;28;19921;-78
2021/12/25 04:26:54;;;;;;;;;;;;;;;-8.94;84.50;96653.06;5014061;28;19917;-78
2021/12/25 05:04:50;;;;;;;;;;;;;;;-8.71;85.78;96616.75;4944541;29;20440;-77
2021/12/25 05:07:28;;;;;;;;;;;;;;;-8.67;85.30;96598.41;5014021;28;20450;-77
2021/12/25 05:09:53;;;;;;;;;;;;;;;-8.64;85.63;96602.69;4997625;28;19921;-82
2021/12/25 05:12:19;;;;;;;;;;;;;;;-8.61;84.79;96600.22;4997615;28;19917;-79
2021/12/25 05:14:45;;;;;;;;;;;;;;;-8.59;85.12;96611.16;5013781;28;20411;-77
2021/12/25 05:17:12;;;;;;;;;;;;;;;-8.58;85.61;96607.81;5015103;28;19917;-77
2021/12/25 05:19:38;;;;;;;;;;;;;;;-8.56;85.09;96608.72;5013504;28;20280;-76
2021/12/25 05:22:05;;;;;;;;;;;;;;;-8.54;85.66;96599.53;5013102;28;19927;-76
2021/12/25 05:24:30;;;;;;;;;;;;;;;-8.52;84.92;96603.78;4997200;28;20454;-78
2021/12/25 05:26:58;;;;;;;;;;;;;;;-8.50;85.90;96607.16;5013606;28;20331;-77
2021/12/25 05:29:25;;;;;;;;;;;;;;;-8.48;85.27;96605.53;4981042;28;19919;-77
2021/12/25 05:31:51;;;;;;;;;;;;;;;-8.46;86.17;96606.41;5013710;28;19921;-77
2021/12/25 05:34:17;;;;;;;;;;;;;;;-8.42;86.29;96596.44;4997779;28;19917;-80
2021/12/25 05:36:52;;;;;;;;;;;;;;;-8.39;86.04;96593.97;5013901;28;19925;-79
2021/12/25 05:39:50;;;;;;;;;;;;;;;-8.35;85.58;96603.25;5000012;28;20335;-78
2021/12/25 05:42:17;;;;;;;;;;;;;;;-8.32;85.68;96604.16;5013201;28;20376;-77
2021/12/25 05:44:43;;;;;;;;;;;;;;;-8.29;85.96;96608.38;5013456;28;20372;-77
2021/12/25 05:47:24;;;;;;;;;;;;;;;-8.26;85.96;96601.75;5014471;28;20380;-77
2021/12/25 05:49:54;;;;;;;;;;;;;;;-8.22;86.14;96602.66;4996940;28;19917;-77
2021/12/25 05:52:38;;;;;;;;;;;;;;;-8.21;86.41;96605.19;4999930;28;20383;-78
2021/12/25 05:55:22;;;;;;;;;;;;;;;-8.19;86.11;96622.84;5015223;28;19924;-78
2021/12/25 05:58:11;;;;;;;;;;;;;;;-8.16;86.36;96622.06;4986569;28;19917;-77
2021/12/25 06:00:52;;;;;;;;;;;;;;;-8.13;87.85;96612.91;5014152;28;19917;-77
2021/12/25 06:03:17;;;;;;;;;;;;;;;-8.07;87.59;96624.75;4996461;28;19963;-79
2021/12/25 06:05:43;;;;;;;;;;;;;;;-8.06;88.20;96603.78;5014029;28;19913;-77
2021/12/25 06:08:09;;;;;;;;;;;;;;;-8.01;88.25;96604.75;5012996;28;20444;-77
2021/12/25 06:10:35;;;;;;;;;;;;;;;-7.99;87.82;96605.63;5012646;28;19953;-78
2021/12/25 06:13:00;;;;;;;;;;;;;;;-7.95;86.98;96600.69;5013885;28;20368;-78
2021/12/25 06:15:34;;;;;;;;;;;;;;;-7.90;88.35;96609.97;5011231;28;19972;-79
2021/12/25 06:18:13;;;;;;;;;;;;;;;-7.85;88.08;96608.41;5012715;28;19917;-78
2021/12/25 06:20:44;;;;;;;;;;;;;;;-7.82;87.52;96609.31;5011957;28;19917;-78
2021/12/25 06:23:29;;;;;;;;;;;;;;;-7.79;88.81;96614.41;5010339;28;19925;-77
2021/12/25 06:26:13;;;;;;;;;;;;;;;-7.77;88.70;96607.72;5014187;28;19924;-78
2021/12/25 06:28:48;;;;;;;;;;;;;;;-7.73;88.54;96606.97;5012669;28;20273;-78
2021/12/25 06:31:13;;;;;;;;;;;;;;;-7.71;89.01;96612.84;4996621;28;20033;-78
2021/12/25 06:33:59;;;;;;;;;;;;;;;-7.69;87.67;96621.28;5013218;28;20398;-78
2021/12/25 06:36:43;;;;;;;;;;;;;;;-7.67;87.75;96618.78;5012785;28;19967;-78
2021/12/25 06:39:25;;;;;;;;;;;;;;;-7.65;88.63;96616.28;4995911;28;19921;-78
2021/12/25 06:42:10;;;;;;;;;;;;;;;-7.65;88.14;96622.22;5009825;28;19921;-78
2021/12/25 06:44:36;;;;;;;;;;;;;;;-7.62;89.18;96621.41;5012067;28;20295;-78
2021/12/25 06:47:02;;;;;;;;;;;;;;;-7.62;88.79;96619.72;4995650;28;19913;-78
2021/12/25 06:49:29;;;;;;;;;;;;;;;-7.59;88.27;96636.56;4995894;28;19917;-78
2021/12/25 06:52:21;;;;;;;;;;;;;;;-7.61;89.02;96620.56;5012432;28;19967;-77
2021/12/25 06:55:20;;;;;;;;;;;;;;;-7.60;87.84;96620.63;5012077;28;19917;-76
2021/12/25 06:58:11;;;;;;;;;;;;;;;-7.56;87.94;96634.97;4982857;28;20423;-77
2021/12/25 07:00:37;;;;;;;;;;;;;;;-7.55;88.36;96625.72;5011907;28;20015;-78
2021/12/25 07:03:04;;;;;;;;;;;;;;;-7.51;88.35;96624.97;4995389;28;19921;-78
2021/12/25 07:06:05;;;;;;;;;;;;;;;-7.47;88.87;96631.72;4953081;29;19925;-78
2021/12/25 07:08:51;;;;;;;;;;;;;;;-7.44;89.28;96636.81;4990471;28;20344;-78
2021/12/25 07:11:35;;;;;;;;;;;;;;;-7.47;88.32;96637.63;5011855;28;19921;-78
2021/12/25 07:14:19;;;;;;;;;;;;;;;-7.44;88.78;96642.69;5012307;28;20016;-78
2021/12/25 07:16:47;;;;;;;;;;;;;;;-7.44;87.74;96637.66;5013213;28;19921;-77
2021/12/25 07:19:36;;;;;;;;;;;;;;;-7.41;87.81;96646.97;5002167;28;20004;-79
2021/12/25 07:22:15;;;;;;;;;;;;;;;-7.40;89.17;96651.16;4995165;28;20024;-79
2021/12/25 07:25:00;;;;;;;;;;;;;;;-7.38;89.15;96659.56;5012775;28;19945;-77
2021/12/25 07:27:34;;;;;;;;;;;;;;;-7.33;89.38;96660.53;5016348;28;19921;-78
2021/12/25 07:30:02;;;;;;;;;;;;;;;-7.29;89.60;96663.94;5015721;28;20347;-77
2021/12/25 07:32:27;;;;;;;;;;;;;;;-7.26;89.31;96664.84;5017027;28;19971;-78
2021/12/25 07:34:53;;;;;;;;;;;;;;;-7.21;88.72;96675.84;5015750;28;19918;-78
2021/12/25 07:37:18;;;;;;;;;;;;;;;-7.16;88.42;96680.94;4983199;28;19956;-78
2021/12/25 07:39:44;;;;;;;;;;;;;;;-7.12;88.55;96681.84;4999146;28;19921;-78
2021/12/25 07:42:10;;;;;;;;;;;;;;;-7.04;89.06;96690.41;5015877;28;19917;-78
2021/12/25 07:45:02;;;;;;;;;;;;;;;-6.96;89.62;96691.38;5017097;28;19924;-78
2021/12/25 07:47:27;;;;;;;;;;;;;;;-6.90;90.12;96686.44;5015881;28;19981;-80
2021/12/25 07:49:56;;;;;;;;;;;;;;;-6.85;88.98;96694.06;5016855;28;19976;-78
2021/12/25 07:52:22;;;;;;;;;;;;;;;-6.81;89.05;96701.69;4999079;28;19917;-77
2021/12/25 07:54:47;;;;;;;;;;;;;;;-6.80;88.77;96708.44;5016619;28;19924;-77
2021/12/25 07:57:13;;;;;;;;;;;;;;;-6.81;90.06;96704.22;4998830;28;20052;-77
2021/12/25 07:59:38;;;;;;;;;;;;;;;-6.75;89.34;96734.56;5016549;28;20067;-78
2021/12/25 08:02:04;;;;;;;;;;;;;;;-6.71;89.36;96723.69;4998611;28;20013;-78
2021/12/25 08:04:29;;;;;;;;;;;;;;;-6.62;89.32;96723.00;5015408;28;19913;-78
2021/12/25 08:06:55;;;;;;;;;;;;;;;-6.58;89.78;96714.66;5015335;28;19923;-77
2021/12/25 08:09:28;;;;;;;;;;;;;;;-6.54;89.69;96740.78;5016599;28;20291;-77
2021/12/25 08:11:54;;;;;;;;;;;;;;;-6.62;88.41;96738.13;5016652;28;20271;-78
2021/12/25 08:14:23;;;;;;;;;;;;;;;-6.53;88.02;96740.78;5015110;28;20355;-78
2021/12/25 08:16:48;;;;;;;;;;;;;;;-6.54;88.76;96744.16;5015212;28;19921;-79
2021/12/25 08:19:14;;;;;;;;;;;;;;;-6.49;88.52;96744.22;4998756;28;20273;-78
2021/12/25 08:21:58;;;;;;;;;;;;;;;-6.40;88.04;96745.19;5015423;28;19972;-78
2021/12/25 08:24:42;;;;;;;;;;;;;;;-6.41;87.37;96745.19;5016771;28;19944;-79
2021/12/25 08:27:26;;;;;;;;;;;;;;;-6.41;87.26;96752.75;5016258;28;19943;-78
2021/12/25 08:30:15;;;;;;;;;;;;;;;-6.36;87.51;96763.75;5008336;28;19924;-79
2021/12/25 08:33:01;;;;;;;;;;;;;;;-6.28;87.16;96794.97;4995239;28;19917;-78
2021/12/25 08:35:45;;;;;;;;;;;;;;;-6.22;87.65;96784.16;5015261;28;20048;-78
2021/12/25 08:38:11;;;;;;;;;;;;;;;-6.25;87.05;96784.09;5013920;28;19956;-78
2021/12/25 08:40:40;;;;;;;;;;;;;;;-6.31;86.96;96782.34;5015806;28;19929;-78
2021/12/25 08:43:06;;;;;;;;;;;;;;;-6.26;86.33;96790.81;5014744;28;19917;-78
2021/12/25 08:48:26;;;;;;;;;;;;;;;-6.41;86.61;96805.72;5006353;28;19928;-77
2021/12/25 08:50:53;;;;;;;;;;;;;;;-6.49;87.37;96809.78;4998548;28;19913;-77
2021/12/25 08:53:19;;;;;;;;;;;;;;;-6.49;86.65;96814.81;4998041;28;19924;-78
2021/12/25 08:55:45;;;;;;;;;;;;;;;-6.59;87.50;96813.81;4998334;28;19914;-79
2021/12/25 08:58:11;;;;;;;;;;;;;;;-6.43;86.94;96830.91;5015790;28;20389;-78
2021/12/25 09:00:36;;;;;;;;;;;;;;;-6.60;86.44;96836.47;4998267;28;19921;-78
2021/12/25 09:03:02;;;;;;;;;;;;;;;-6.54;86.36;96821.47;5015439;28;19917;-79
2021/12/25 09:05:27;;;;;;;;;;;;;;;-6.47;86.50;96833.34;5015464;28;19913;-79
2021/12/25 09:07:53;;;;;;;;;;;;;;;-6.47;86.03;96828.28;5015679;28;20434;-78
2021/12/25 09:10:18;;;;;;;;;;;;;;;-6.53;85.02;96838.28;4998164;28;19913;-78
2021/12/25 09:12:45;;;;;;;;;;;;;;;-6.58;84.37;96860.06;5015357;28;19925;-78
2021/12/25 09:15:11;;;;;;;;;;;;;;;-6.36;83.88;96856.25;4997767;28;19920;-78
2021/12/25 09:17:36;;;;;;;;;;;;;;;-6.36;82.53;96857.09;5015357;28;20427;-77
2021/12/25 09:20:03;;;;;;;;;;;;;;;-6.54;81.28;96861.81;4997696;28;19963;-79
2021/12/25 09:22:28;;;;;;;;;;;;;;;-6.51;80.57;96862.69;5013966;28;19921;-79
2021/12/25 09:24:54;;;;;;;;;;;;;;;-6.24;81.70;96877.44;5014853;28;19919;-77
2021/12/25 09:27:20;;;;;;;;;;;;;;;-6.43;79.34;96872.91;5013719;28;19960;-77
2021/12/25 09:29:45;;;;;;;;;;;;;;;-6.05;79.66;96871.03;5013499;28;19920;-79
2021/12/25 09:32:11;;;;;;;;;;;;;;;-6.15;77.19;96894.41;5013797;28;20380;-79
2021/12/25 09:34:36;;;;;;;;;;;;;;;-6.28;76.57;96888.31;5014947;28;20008;-80
2021/12/25 09:37:02;;;;;;;;;;;;;;;-6.24;76.25;96879.97;5014749;28;19972;-78
2021/12/25 09:39:27;;;;;;;;;;;;;;;-6.18;76.36;96892.72;4998019;28;19961;-79
2021/12/25 09:41:53;;;;;;;;;;;;;;;-6.10;76.40;96897.88;5013725;28;20016;-78
2021/12/25 09:44:18;;;;;;;;;;;;;;;-6.12;76.55;96898.69;5013727;28;20012;-78
2021/12/25 09:46:44;;;;;;;;;;;;;;;-6.08;76.84;96900.44;5014167;28;19921;-77
2021/12/25 09:49:10;;;;;;;;;;;;;;;-6.03;75.12;96911.44;5013484;28;19974;-78
2021/12/25 09:51:36;;;;;;;;;;;;;;;-5.91;74.49;96909.06;5014179;28;19929;-82
2021/12/25 09:54:12;;;;;;;;;;;;;;;-5.82;74.27;96937.00;4998604;28;20576;-83
2021/12/25 09:56:38;;;;;;;;;;;;;;;-5.75;72.48;96908.50;4997163;28;19917;-78
2021/12/25 09:59:04;;;;;;;;;;;;;;;-5.78;71.85;96932.84;4997044;28;19913;-78
2021/12/25 10:01:45;;;;;;;;;;;;;;;-5.94;70.82;96921.69;5013232;28;20403;-79
2021/12/25 10:04:12;;;;;;;;;;;;;;;-6.07;70.34;96940.81;5014423;28;20307;-77
2021/12/25 10:06:39;;;;;;;;;;;;;;;-6.16;70.80;96954.13;5013032;28;19928;-78
2021/12/25 10:09:11;;;;;;;;;;;;;;;-6.14;72.59;96956.66;5013571;28;19921;-84
2021/12/25 10:11:37;;;;;;;;;;;;;;;-6.28;73.86;96963.16;5014065;28;20388;-77
2021/12/25 10:14:02;;;;;;;;;;;;;;;-6.28;74.51;96975.75;5013602;28;20023;-84
2021/12/25 10:16:29;;;;;;;;;;;;;;;-6.32;76.22;96959.75;5013232;28;19917;-82
2021/12/25 10:18:55;;;;;;;;;;;;;;;-5.84;79.37;96973.16;4996916;28;19917;-78
2021/12/25 10:21:28;;;;;;;;;;;;;;;-5.47;79.60;96964.47;5013351;28;19964;-79
2021/12/25 10:24:04;;;;;;;;;;;;;;;-5.32;76.70;96979.84;4996746;28;19921;-81
2021/12/25 10:26:29;;;;;;;;;;;;;;;-4.78;76.90;96996.63;5013414;28;20358;-78
2021/12/25 10:28:55;;;;;;;;;;;;;;;-4.27;74.76;96995.56;5013868;28;20020;-78
2021/12/25 10:31:28;;;;;;;;;;;;;;;-3.52;73.61;96990.41;5013764;28;19957;-78
2021/12/25 10:33:53;;;;;;;;;;;;;;;-2.97;70.40;97000.94;5012426;28;19921;-79
2021/12/25 10:36:29;;;;;;;;;;;;;;;-2.70;67.16;97003.63;5013940;28;20368;-78
2021/12/25 10:38:57;;;;;;;;;;;;;;;-2.48;62.91;97013.88;5012334;28;20354;-78
2021/12/25 10:41:23;;;;;;;;;;;;;;;-2.64;63.71;97006.19;4995875;28;19917;-79
2021/12/25 10:43:49;;;;;;;;;;;;;;;-2.99;62.98;97033.88;5012288;28;19968;-78
2021/12/25 10:46:14;;;;;;;;;;;;;;;-3.14;61.25;97032.09;5013359;28;19920;-78
2021/12/25 10:48:40;;;;;;;;;;;;;;;-3.71;59.90;97043.44;5012145;28;20765;-78
2021/12/25 10:51:06;;;;;;;;;;;;;;;-4.35;59.07;97036.00;5012299;28;19939;-79
2021/12/25 10:53:34;;;;;;;;;;;;;;;-4.47;60.98;97040.03;4995884;28;19917;-79
2021/12/25 10:56:07;;;;;;;;;;;;;;;-4.53;61.32;97040.81;5012045;28;20265;-78
2021/12/25 10:58:33;;;;;;;;;;;;;;;-4.44;63.25;97047.69;5012119;28;20012;-77
2021/12/25 11:00:58;;;;;;;;;;;;;;;-4.47;61.93;97053.53;5012888;28;20003;-79
2021/12/25 11:03:28;;;;;;;;;;;;;;;-5.37;59.73;97068.22;4995858;28;19917;-79
2021/12/25 11:05:54;;;;;;;;;;;;;;;-5.83;60.36;97074.16;5013249;28;20479;-78
2021/12/25 11:08:20;;;;;;;;;;;;;;;-5.87;60.68;97073.22;5011977;28;20020;-78
2021/12/25 11:10:53;;;;;;;;;;;;;;;-6.21;62.17;97098.69;5012109;28;19948;-78
2021/12/25 11:13:19;;;;;;;;;;;;;;;-5.95;62.08;97096.69;5013538;28;19924;-78
2021/12/25 11:15:44;;;;;;;;;;;;;;;-6.26;63.02;97092.69;5013444;28;19913;-78
2021/12/25 11:18:12;;;;;;;;;;;;;;;-6.22;62.69;97086.91;5013506;28;19917;-79
2021/12/25 11:20:38;;;;;;;;;;;;;;;-6.48;62.79;97111.56;5012185;28;19973;-79
2021/12/25 11:23:05;;;;;;;;;;;;;;;-6.58;63.62;97127.34;5011870;28;19944;-79
2021/12/25 11:25:31;;;;;;;;;;;;;;;-6.74;63.32;97126.97;4995679;28;19960;-78
2021/12/25 11:27:56;;;;;;;;;;;;;;;-6.60;65.72;97127.28;5013032;28;19921;-79
2021/12/25 11:30:22;;;;;;;;;;;;;;;-6.68;61.16;97137.22;5013474;28;20273;-78
2021/12/25 11:32:48;;;;;;;;;;;;;;;-6.43;61.53;97140.25;5013062;28;19971;-78
2021/12/25 11:35:15;;;;;;;;;;;;;;;-6.66;61.31;97148.16;5012016;28;19984;-79
2021/12/25 11:37:41;;;;;;;;;;;;;;;-6.65;62.34;97138.94;4995653;28;19917;-77
2021/12/25 11:40:07;;;;;;;;;;;;;;;-6.59;63.01;97149.19;5012999;28;19973;-79
2021/12/25 11:42:33;;;;;;;;;;;;;;;-6.38;63.77;97142.88;5013089;28;20024;-78
2021/12/25 11:45:08;;;;;;;;;;;;;;;-6.63;62.84;97169.25;5012027;28;19956;-79
2021/12/25 11:47:38;;;;;;;;;;;;;;;-6.59;63.37;97155.91;5011590;28;20295;-78
2021/12/25 11:50:27;;;;;;;;;;;;;;;-6.98;62.25;97166.72;4995568;28;20028;-79
2021/12/25 11:53:06;;;;;;;;;;;;;;;-7.02;64.06;97182.59;4992575;28;19917;-79
2021/12/25 11:56:01;;;;;;;;;;;;;;;-7.10;64.55;97181.53;5013100;28;20304;-79
2021/12/25 11:58:53;;;;;;;;;;;;;;;-7.11;64.47;97180.69;5011756;28;19917;-79
2021/12/25 12:01:29;;;;;;;;;;;;;;;-6.94;65.95;97192.03;4990348;28;19924;-78
2021/12/25 12:03:57;;;;;;;;;;;;;;;-6.87;65.69;97200.63;5011780;28;19917;-78
2021/12/25 12:06:41;;;;;;;;;;;;;;;-7.21;64.24;97197.25;5012998;28;19913;-78
2021/12/25 12:09:10;;;;;;;;;;;;;;;-7.23;64.56;97208.97;5011624;28;19925;-80
2021/12/25 12:12:04;;;;;;;;;;;;;;;-7.09;62.74;97214.34;5014208;28;19921;-79
2021/12/25 12:15:08;;;;;;;;;;;;;;;-7.18;63.09;97224.19;5016580;28;19925;-78
2021/12/25 12:17:54;;;;;;;;;;;;;;;-7.31;62.32;97244.84;5016541;28;20066;-79
2021/12/25 12:20:39;;;;;;;;;;;;;;;-7.22;63.05;97233.34;5014277;28;19917;-78
2021/12/25 12:23:33;;;;;;;;;;;;;;;-7.35;60.47;97243.03;5015045;28;19921;-78
2021/12/25 12:26:04;;;;;;;;;;;;;;;-7.18;60.11;97247.72;5016109;28;19924;-78
2021/12/25 12:29:02;;;;;;;;;;;;;;;-7.16;61.39;97253.63;5016334;28;19929;-78
2021/12/25 12:31:43;;;;;;;;;;;;;;;-7.16;60.29;97263.72;4971682;28;19921;-80
2021/12/25 12:34:28;;;;;;;;;;;;;;;-7.07;60.82;97277.38;4998962;28;20404;-78
2021/12/25 12:37:13;;;;;;;;;;;;;;;-7.14;60.97;97275.53;5016347;28;20346;-79
2021/12/25 12:39:42;;;;;;;;;;;;;;;-7.13;62.29;97287.28;5016025;28;19921;-78
2021/12/25 12:42:12;;;;;;;;;;;;;;;-7.46;63.64;97288.94;5016271;28;20436;-78
2021/12/25 12:44:37;;;;;;;;;;;;;;;-7.46;64.97;97311.59;5015047;28;19921;-78
2021/12/25 12:47:06;;;;;;;;;;;;;;;-7.61;67.30;97315.31;5015481;28;19921;-78
2021/12/25 12:49:32;;;;;;;;;;;;;;;-7.72;67.69;97310.84;5016545;28;19928;-78
2021/12/25 12:52:09;;;;;;;;;;;;;;;-7.70;68.65;97309.22;5014995;28;19913;-77
2021/12/25 12:54:41;;;;;;;;;;;;;;;-7.79;70.51;97316.50;5016582;28;19967;-77
2021/12/25 12:57:07;;;;;;;;;;;;;;;-7.79;70.50;97326.59;5017242;28;20359;-81
2021/12/25 12:59:45;;;;;;;;;;;;;;;-7.32;70.48;97332.13;5015087;28;19939;-80
2021/12/25 13:02:11;;;;;;;;;;;;;;;-7.41;70.95;97329.34;5016096;28;19940;-79
2021/12/25 13:04:42;;;;;;;;;;;;;;;-7.57;71.96;97349.84;5014945;28;19921;-78
2021/12/25 13:07:15;;;;;;;;;;;;;;;-7.84;74.81;97353.25;5015957;28;20332;-79
2021/12/25 13:09:44;;;;;;;;;;;;;;;-7.64;76.71;97358.06;5015519;28;19923;-79
2021/12/25 13:12:21;;;;;;;;;;;;;;;-7.59;77.44;97354.00;4998149;28;20299;-78
2021/12/25 13:14:56;;;;;;;;;;;;;;;-7.95;76.05;97385.63;5015149;28;20517;-78
2021/12/25 13:17:22;;;;;;;;;;;;;;;-8.00;77.56;97378.75;5014303;28;19917;-82
2021/12/25 13:19:48;;;;;;;;;;;;;;;-7.69;75.96;97385.59;4997591;28;19967;-78
2021/12/25 13:22:13;;;;;;;;;;;;;;;-7.91;74.63;97396.66;5013842;28;20300;-79
2021/12/25 13:24:39;;;;;;;;;;;;;;;-8.20;73.14;97391.56;5013832;28;19913;-80
2021/12/25 13:27:04;;;;;;;;;;;;;;;-8.32;70.92;97421.31;5015534;28;19924;-78
2021/12/25 13:29:31;;;;;;;;;;;;;;;-8.22;71.84;97405.72;5014162;28;20020;-77
2021/12/25 13:31:56;;;;;;;;;;;;;;;-8.36;69.44;97421.19;5015162;28;20613;-78
2021/12/25 13:34:23;;;;;;;;;;;;;;;-8.39;69.35;97424.47;5013975;28;19964;-78
2021/12/25 13:36:52;;;;;;;;;;;;;;;-8.63;67.16;97446.25;5013759;28;19972;-78
2021/12/25 13:39:18;;;;;;;;;;;;;;;-8.43;67.43;97434.34;5013396;28;19928;-78
2021/12/25 13:41:56;;;;;;;;;;;;;;;-8.57;66.43;97441.44;5014093;28;19917;-78
2021/12/25 13:44:27;;;;;;;;;;;;;;;-8.73;65.40;97443.41;5013622;28;19924;-77
2021/12/25 13:46:57;;;;;;;;;;;;;;;-8.67;64.81;97441.91;5013987;28;19916;-78
2021/12/25 13:49:42;;;;;;;;;;;;;;;-8.77;65.35;97446.63;5013643;28;19949;-77
2021/12/25 13:52:12;;;;;;;;;;;;;;;-9.01;65.27;97460.81;5015132;28;20026;-78
2021/12/25 13:54:42;;;;;;;;;;;;;;;-8.77;65.23;97466.72;5014793;28;19921;-77
2021/12/25 13:57:08;;;;;;;;;;;;;;;-8.94;65.15;97470.28;5013409;28;20287;-78
2021/12/25 13:59:34;;;;;;;;;;;;;;;-8.55;64.63;97477.53;5013883;28;19913;-78
2021/12/25 14:02:00;;;;;;;;;;;;;;;-8.51;64.69;97482.72;4997146;28;19917;-77
2021/12/25 14:04:26;;;;;;;;;;;;;;;-9.10;63.99;97485.59;5014744;28;19913;-79
2021/12/25 14:06:51;;;;;;;;;;;;;;;-9.31;64.69;97500.69;5013542;28;20355;-78
2021/12/25 14:09:16;;;;;;;;;;;;;;;-9.14;65.18;97508.88;4996963;28;19921;-79
2021/12/25 14:11:52;;;;;;;;;;;;;;;-9.03;64.46;97521.03;5013929;28;19917;-81
2021/12/25 14:14:21;;;;;;;;;;;;;;;-9.23;64.46;97520.28;5013265;28;20307;-78
2021/12/25 14:16:47;;;;;;;;;;;;;;;-9.45;64.63;97529.41;5013154;28;19928;-79